sensor_id;sensor_type;location;lat;lon;timestamp;P1;durP1;ratioP1;P2;durP2;ratioP2
1467;SDS011;727;48.892;9.544;2022-08-21T00:00:48;5.13;;;3.90;;
1467;SDS011;727;48.892;9.544;2022-08-21T00:03:15;4.40;;;4.00;;
1467;SDS011;727;48.892;9.544;2022-08-21T00:05:43;4.50;;;4.10;;
1467;SDS011;727;48.892;9.544;2022-08-21T00:08:11;10.53;;;4.10;;
1467;SDS011;727;48.892;9.544;2022-08-21T00:10:38;4.97;;;4.27;;
1467;SDS011;727;48.892;9.544;2022-08-21T00:13:07;5.60;;;4.20;;
1467;SDS011;727;48.892;9.544;2022-08-21T00:15:35;5.93;;;5.20;;
1467;SDS011;727;48.892;9.544;2022-08-21T00:18:03;7.10;;;5.07;;
1467;SDS011;727;48.892;9.544;2022-08-21T00:20:31;10.07;;;5.23;;
1467;SDS011;727;48.892;9.544;2022-08-21T00:22:58;7.00;;;4.07;;
1467;SDS011;727;48.892;9.544;2022-08-21T00:25:25;9.50;;;5.20;;
1467;SDS011;727;48.892;9.544;2022-08-21T00:27:53;14.23;;;4.50;;
1467;SDS011;727;48.892;9.544;2022-08-21T00:30:23;5.43;;;4.93;;
1467;SDS011;727;48.892;9.544;2022-08-21T00:32:51;7.13;;;4.73;;
1467;SDS011;727;48.892;9.544;2022-08-21T00:35:21;4.30;;;3.90;;
1467;SDS011;727;48.892;9.544;2022-08-21T00:37:50;4.10;;;3.80;;
1467;SDS011;727;48.892;9.544;2022-08-21T00:40:18;4.47;;;4.07;;
1467;SDS011;727;48.892;9.544;2022-08-21T00:42:48;5.93;;;4.00;;
1467;SDS011;727;48.892;9.544;2022-08-21T00:45:15;5.10;;;4.60;;
1467;SDS011;727;48.892;9.544;2022-08-21T00:47:43;5.20;;;4.70;;
1467;SDS011;727;48.892;9.544;2022-08-21T00:50:11;5.17;;;4.57;;
1467;SDS011;727;48.892;9.544;2022-08-21T00:52:39;8.10;;;5.17;;
1467;SDS011;727;48.892;9.544;2022-08-21T00:55:08;5.83;;;4.50;;
1467;SDS011;727;48.892;9.544;2022-08-21T00:57:38;4.40;;;4.00;;
1467;SDS011;727;48.892;9.544;2022-08-21T01:00:10;5.27;;;4.87;;
1467;SDS011;727;48.892;9.544;2022-08-21T01:02:41;4.87;;;4.30;;
1467;SDS011;727;48.892;9.544;2022-08-21T01:05:09;4.57;;;4.17;;
1467;SDS011;727;48.892;9.544;2022-08-21T01:07:37;12.60;;;4.63;;
1467;SDS011;727;48.892;9.544;2022-08-21T01:10:05;5.03;;;4.63;;
1467;SDS011;727;48.892;9.544;2022-08-21T01:12:32;4.60;;;4.20;;
1467;SDS011;727;48.892;9.544;2022-08-21T01:15:00;6.77;;;4.40;;
1467;SDS011;727;48.892;9.544;2022-08-21T01:17:29;4.03;;;3.73;;
1467;SDS011;727;48.892;9.544;2022-08-21T01:19:57;4.63;;;4.23;;
1467;SDS011;727;48.892;9.544;2022-08-21T01:22:25;5.67;;;4.57;;
1467;SDS011;727;48.892;9.544;2022-08-21T01:24:52;4.47;;;4.07;;
1467;SDS011;727;48.892;9.544;2022-08-21T01:27:19;9.80;;;4.67;;
1467;SDS011;727;48.892;9.544;2022-08-21T01:29:48;4.30;;;4.00;;
1467;SDS011;727;48.892;9.544;2022-08-21T01:32:20;5.63;;;4.37;;
1467;SDS011;727;48.892;9.544;2022-08-21T01:34:48;6.00;;;4.37;;
1467;SDS011;727;48.892;9.544;2022-08-21T01:37:16;7.03;;;4.40;;
1467;SDS011;727;48.892;9.544;2022-08-21T01:39:44;4.70;;;4.30;;
1467;SDS011;727;48.892;9.544;2022-08-21T01:42:11;6.23;;;5.60;;
1467;SDS011;727;48.892;9.544;2022-08-21T01:44:38;6.13;;;4.70;;
1467;SDS011;727;48.892;9.544;2022-08-21T01:47:05;5.10;;;4.60;;
1467;SDS011;727;48.892;9.544;2022-08-21T01:49:34;5.00;;;4.53;;
1467;SDS011;727;48.892;9.544;2022-08-21T01:52:00;7.00;;;5.60;;
1467;SDS011;727;48.892;9.544;2022-08-21T01:54:29;5.60;;;4.53;;
1467;SDS011;727;48.892;9.544;2022-08-21T01:56:57;6.27;;;5.67;;
1467;SDS011;727;48.892;9.544;2022-08-21T01:59:26;4.93;;;4.47;;
1467;SDS011;727;48.892;9.544;2022-08-21T02:01:53;7.20;;;4.73;;
1467;SDS011;727;48.892;9.544;2022-08-21T02:04:20;7.57;;;5.17;;
1467;SDS011;727;48.892;9.544;2022-08-21T02:06:48;4.70;;;4.30;;
1467;SDS011;727;48.892;9.544;2022-08-21T02:09:15;4.60;;;4.23;;
1467;SDS011;727;48.892;9.544;2022-08-21T02:11:42;8.60;;;4.23;;
1467;SDS011;727;48.892;9.544;2022-08-21T02:14:11;5.27;;;4.83;;
1467;SDS011;727;48.892;9.544;2022-08-21T02:16:40;5.00;;;4.00;;
1467;SDS011;727;48.892;9.544;2022-08-21T02:19:07;6.53;;;4.83;;
1467;SDS011;727;48.892;9.544;2022-08-21T02:21:34;4.93;;;4.40;;
1467;SDS011;727;48.892;9.544;2022-08-21T02:24:02;5.47;;;4.77;;
1467;SDS011;727;48.892;9.544;2022-08-21T02:26:29;5.00;;;4.60;;
1467;SDS011;727;48.892;9.544;2022-08-21T02:28:56;6.37;;;5.00;;
1467;SDS011;727;48.892;9.544;2022-08-21T02:31:24;5.57;;;5.17;;
1467;SDS011;727;48.892;9.544;2022-08-21T02:33:51;7.37;;;5.00;;
1467;SDS011;727;48.892;9.544;2022-08-21T02:36:18;5.97;;;5.20;;
1467;SDS011;727;48.892;9.544;2022-08-21T02:38:44;5.47;;;4.97;;
1467;SDS011;727;48.892;9.544;2022-08-21T02:41:12;6.50;;;4.97;;
1467;SDS011;727;48.892;9.544;2022-08-21T02:43:41;4.80;;;4.47;;
1467;SDS011;727;48.892;9.544;2022-08-21T02:46:08;8.00;;;4.83;;
1467;SDS011;727;48.892;9.544;2022-08-21T02:48:38;7.00;;;4.53;;
1467;SDS011;727;48.892;9.544;2022-08-21T02:51:06;6.33;;;4.83;;
1467;SDS011;727;48.892;9.544;2022-08-21T02:53:35;10.77;;;5.10;;
1467;SDS011;727;48.892;9.544;2022-08-21T02:56:05;5.00;;;4.60;;
1467;SDS011;727;48.892;9.544;2022-08-21T02:58:34;5.50;;;5.00;;
1467;SDS011;727;48.892;9.544;2022-08-21T03:01:03;4.17;;;3.87;;
1467;SDS011;727;48.892;9.544;2022-08-21T03:03:34;6.80;;;4.80;;
1467;SDS011;727;48.892;9.544;2022-08-21T03:06:04;5.20;;;4.70;;
1467;SDS011;727;48.892;9.544;2022-08-21T03:08:33;6.83;;;5.27;;
1467;SDS011;727;48.892;9.544;2022-08-21T03:10:59;8.93;;;5.23;;
1467;SDS011;727;48.892;9.544;2022-08-21T03:13:26;4.80;;;4.40;;
1467;SDS011;727;48.892;9.544;2022-08-21T03:15:54;5.23;;;4.80;;
1467;SDS011;727;48.892;9.544;2022-08-21T03:18:21;5.67;;;4.70;;
1467;SDS011;727;48.892;9.544;2022-08-21T03:20:48;4.90;;;4.50;;
1467;SDS011;727;48.892;9.544;2022-08-21T03:23:16;5.80;;;5.40;;
1467;SDS011;727;48.892;9.544;2022-08-21T03:25:44;5.93;;;4.10;;
1467;SDS011;727;48.892;9.544;2022-08-21T03:28:13;6.77;;;4.90;;
1467;SDS011;727;48.892;9.544;2022-08-21T03:30:42;6.93;;;5.00;;
1467;SDS011;727;48.892;9.544;2022-08-21T03:33:10;5.33;;;4.93;;
1467;SDS011;727;48.892;9.544;2022-08-21T03:35:37;6.77;;;4.40;;
1467;SDS011;727;48.892;9.544;2022-08-21T03:38:03;7.13;;;5.00;;
1467;SDS011;727;48.892;9.544;2022-08-21T03:40:31;6.10;;;5.50;;
1467;SDS011;727;48.892;9.544;2022-08-21T03:42:58;5.80;;;5.27;;
1467;SDS011;727;48.892;9.544;2022-08-21T03:45:25;5.37;;;4.87;;
1467;SDS011;727;48.892;9.544;2022-08-21T03:47:53;5.67;;;4.33;;
1467;SDS011;727;48.892;9.544;2022-08-21T03:50:21;12.30;;;4.80;;
1467;SDS011;727;48.892;9.544;2022-08-21T03:52:49;7.40;;;5.33;;
1467;SDS011;727;48.892;9.544;2022-08-21T03:55:16;8.63;;;5.13;;
1467;SDS011;727;48.892;9.544;2022-08-21T03:57:44;4.80;;;4.37;;
1467;SDS011;727;48.892;9.544;2022-08-21T04:00:11;6.93;;;6.07;;
1467;SDS011;727;48.892;9.544;2022-08-21T04:02:40;6.60;;;5.23;;
1467;SDS011;727;48.892;9.544;2022-08-21T04:05:07;8.00;;;4.80;;
1467;SDS011;727;48.892;9.544;2022-08-21T04:07:34;6.43;;;4.70;;
1467;SDS011;727;48.892;9.544;2022-08-21T04:10:02;5.63;;;5.17;;
1467;SDS011;727;48.892;9.544;2022-08-21T04:12:29;9.87;;;6.63;;
1467;SDS011;727;48.892;9.544;2022-08-21T04:14:57;5.60;;;4.90;;
1467;SDS011;727;48.892;9.544;2022-08-21T04:17:26;5.20;;;4.77;;
1467;SDS011;727;48.892;9.544;2022-08-21T04:19:53;7.43;;;4.83;;
1467;SDS011;727;48.892;9.544;2022-08-21T04:22:21;5.23;;;4.87;;
1467;SDS011;727;48.892;9.544;2022-08-21T04:24:47;5.77;;;4.80;;
1467;SDS011;727;48.892;9.544;2022-08-21T04:27:14;11.63;;;4.90;;
1467;SDS011;727;48.892;9.544;2022-08-21T04:29:41;5.37;;;4.97;;
1467;SDS011;727;48.892;9.544;2022-08-21T04:32:09;4.27;;;3.97;;
1467;SDS011;727;48.892;9.544;2022-08-21T04:34:36;6.20;;;5.70;;
1467;SDS011;727;48.892;9.544;2022-08-21T04:37:02;5.30;;;4.80;;
1467;SDS011;727;48.892;9.544;2022-08-21T04:39:29;5.57;;;5.07;;
1467;SDS011;727;48.892;9.544;2022-08-21T04:41:56;9.90;;;5.73;;
1467;SDS011;727;48.892;9.544;2022-08-21T04:44:23;7.00;;;5.07;;
1467;SDS011;727;48.892;9.544;2022-08-21T04:46:49;5.23;;;4.73;;
1467;SDS011;727;48.892;9.544;2022-08-21T04:49:17;5.93;;;4.60;;
1467;SDS011;727;48.892;9.544;2022-08-21T04:51:44;8.10;;;5.73;;
1467;SDS011;727;48.892;9.544;2022-08-21T04:54:12;5.30;;;4.93;;
1467;SDS011;727;48.892;9.544;2022-08-21T04:56:42;6.00;;;5.27;;
1467;SDS011;727;48.892;9.544;2022-08-21T04:59:13;5.93;;;5.43;;
1467;SDS011;727;48.892;9.544;2022-08-21T05:01:43;4.30;;;3.90;;
1467;SDS011;727;48.892;9.544;2022-08-21T05:04:12;3.70;;;3.20;;
1467;SDS011;727;48.892;9.544;2022-08-21T05:06:43;3.40;;;3.10;;
1467;SDS011;727;48.892;9.544;2022-08-21T05:09:12;3.23;;;2.90;;
1467;SDS011;727;48.892;9.544;2022-08-21T05:11:42;3.30;;;2.97;;
1467;SDS011;727;48.892;9.544;2022-08-21T05:14:10;5.23;;;3.20;;
1467;SDS011;727;48.892;9.544;2022-08-21T05:16:37;3.53;;;2.63;;
1467;SDS011;727;48.892;9.544;2022-08-21T05:19:05;4.60;;;2.67;;
1467;SDS011;727;48.892;9.544;2022-08-21T05:21:32;2.90;;;2.70;;
1467;SDS011;727;48.892;9.544;2022-08-21T05:24:00;2.83;;;2.50;;
1467;SDS011;727;48.892;9.544;2022-08-21T05:26:27;2.67;;;2.47;;
1467;SDS011;727;48.892;9.544;2022-08-21T05:28:54;3.00;;;2.80;;
1467;SDS011;727;48.892;9.544;2022-08-21T05:31:21;2.63;;;2.43;;
1467;SDS011;727;48.892;9.544;2022-08-21T05:33:48;3.80;;;2.27;;
1467;SDS011;727;48.892;9.544;2022-08-21T05:36:16;4.50;;;2.93;;
1467;SDS011;727;48.892;9.544;2022-08-21T05:38:43;3.50;;;2.37;;
1467;SDS011;727;48.892;9.544;2022-08-21T05:41:11;3.70;;;2.87;;
1467;SDS011;727;48.892;9.544;2022-08-21T05:43:37;4.17;;;2.63;;
1467;SDS011;727;48.892;9.544;2022-08-21T05:46:05;3.60;;;3.30;;
1467;SDS011;727;48.892;9.544;2022-08-21T05:48:33;4.00;;;3.00;;
1467;SDS011;727;48.892;9.544;2022-08-21T05:51:04;3.00;;;2.10;;
1467;SDS011;727;48.892;9.544;2022-08-21T05:53:32;2.13;;;2.03;;
1467;SDS011;727;48.892;9.544;2022-08-21T05:55:59;3.23;;;2.50;;
1467;SDS011;727;48.892;9.544;2022-08-21T05:58:30;2.37;;;2.17;;
1467;SDS011;727;48.892;9.544;2022-08-21T06:00:58;5.50;;;2.23;;
1467;SDS011;727;48.892;9.544;2022-08-21T06:03:29;3.00;;;2.33;;
1467;SDS011;727;48.892;9.544;2022-08-21T06:05:57;2.73;;;2.53;;
1467;SDS011;727;48.892;9.544;2022-08-21T06:08:25;2.50;;;2.20;;
1467;SDS011;727;48.892;9.544;2022-08-21T06:10:52;4.10;;;2.87;;
1467;SDS011;727;48.892;9.544;2022-08-21T06:13:20;5.13;;;2.27;;
1467;SDS011;727;48.892;9.544;2022-08-21T06:15:49;7.83;;;2.50;;
1467;SDS011;727;48.892;9.544;2022-08-21T06:18:16;2.53;;;2.33;;
1467;SDS011;727;48.892;9.544;2022-08-21T06:20:43;2.80;;;2.60;;
1467;SDS011;727;48.892;9.544;2022-08-21T06:23:10;6.90;;;3.30;;
1467;SDS011;727;48.892;9.544;2022-08-21T06:25:37;2.60;;;2.40;;
1467;SDS011;727;48.892;9.544;2022-08-21T06:28:04;3.17;;;2.67;;
1467;SDS011;727;48.892;9.544;2022-08-21T06:30:32;3.00;;;2.80;;
1467;SDS011;727;48.892;9.544;2022-08-21T06:33:01;5.73;;;3.53;;
1467;SDS011;727;48.892;9.544;2022-08-21T06:35:28;4.10;;;3.17;;
1467;SDS011;727;48.892;9.544;2022-08-21T06:37:55;2.93;;;2.67;;
1467;SDS011;727;48.892;9.544;2022-08-21T06:40:22;3.47;;;3.20;;
1467;SDS011;727;48.892;9.544;2022-08-21T06:42:48;3.43;;;3.20;;
1467;SDS011;727;48.892;9.544;2022-08-21T06:45:15;7.40;;;3.07;;
1467;SDS011;727;48.892;9.544;2022-08-21T06:47:42;3.70;;;3.40;;
1467;SDS011;727;48.892;9.544;2022-08-21T06:50:10;4.20;;;3.90;;
1467;SDS011;727;48.892;9.544;2022-08-21T06:52:37;4.93;;;3.37;;
1467;SDS011;727;48.892;9.544;2022-08-21T06:55:05;4.23;;;3.80;;
1467;SDS011;727;48.892;9.544;2022-08-21T06:57:34;4.43;;;3.43;;
1467;SDS011;727;48.892;9.544;2022-08-21T07:00:01;3.30;;;3.00;;
1467;SDS011;727;48.892;9.544;2022-08-21T07:02:29;5.00;;;3.40;;
1467;SDS011;727;48.892;9.544;2022-08-21T07:04:56;3.47;;;2.90;;
1467;SDS011;727;48.892;9.544;2022-08-21T07:07:25;3.30;;;3.03;;
1467;SDS011;727;48.892;9.544;2022-08-21T07:09:51;5.93;;;3.30;;
1467;SDS011;727;48.892;9.544;2022-08-21T07:12:18;4.13;;;3.53;;
1467;SDS011;727;48.892;9.544;2022-08-21T07:14:45;5.60;;;3.57;;
1467;SDS011;727;48.892;9.544;2022-08-21T07:17:12;3.90;;;2.90;;
1467;SDS011;727;48.892;9.544;2022-08-21T07:19:39;5.17;;;3.50;;
1467;SDS011;727;48.892;9.544;2022-08-21T07:22:05;4.20;;;3.17;;
1467;SDS011;727;48.892;9.544;2022-08-21T07:24:33;3.87;;;3.10;;
1467;SDS011;727;48.892;9.544;2022-08-21T07:27:00;5.10;;;3.43;;
1467;SDS011;727;48.892;9.544;2022-08-21T07:29:27;3.73;;;2.80;;
1467;SDS011;727;48.892;9.544;2022-08-21T07:31:54;3.80;;;3.00;;
1467;SDS011;727;48.892;9.544;2022-08-21T07:34:20;3.60;;;3.17;;
1467;SDS011;727;48.892;9.544;2022-08-21T07:36:47;3.53;;;3.10;;
1467;SDS011;727;48.892;9.544;2022-08-21T07:39:14;6.73;;;4.33;;
1467;SDS011;727;48.892;9.544;2022-08-21T07:41:42;5.43;;;3.90;;
1467;SDS011;727;48.892;9.544;2022-08-21T07:44:08;4.63;;;3.50;;
1467;SDS011;727;48.892;9.544;2022-08-21T07:46:35;6.43;;;3.23;;
1467;SDS011;727;48.892;9.544;2022-08-21T07:49:02;3.40;;;3.00;;
1467;SDS011;727;48.892;9.544;2022-08-21T07:51:28;4.23;;;3.23;;
1467;SDS011;727;48.892;9.544;2022-08-21T07:53:56;4.00;;;3.27;;
1467;SDS011;727;48.892;9.544;2022-08-21T07:56:23;3.83;;;3.53;;
1467;SDS011;727;48.892;9.544;2022-08-21T07:58:52;5.97;;;4.00;;
1467;SDS011;727;48.892;9.544;2022-08-21T08:01:19;3.60;;;3.30;;
1467;SDS011;727;48.892;9.544;2022-08-21T08:03:46;5.00;;;3.60;;
1467;SDS011;727;48.892;9.544;2022-08-21T08:06:12;3.73;;;2.87;;
1467;SDS011;727;48.892;9.544;2022-08-21T08:08:41;3.83;;;3.30;;
1467;SDS011;727;48.892;9.544;2022-08-21T08:11:09;4.03;;;2.90;;
1467;SDS011;727;48.892;9.544;2022-08-21T08:13:38;4.50;;;4.10;;
1467;SDS011;727;48.892;9.544;2022-08-21T08:16:07;4.17;;;3.10;;
1467;SDS011;727;48.892;9.544;2022-08-21T08:18:33;4.50;;;4.10;;
1467;SDS011;727;48.892;9.544;2022-08-21T08:21:00;5.73;;;3.50;;
1467;SDS011;727;48.892;9.544;2022-08-21T08:23:27;3.60;;;3.30;;
1467;SDS011;727;48.892;9.544;2022-08-21T08:25:55;3.80;;;3.20;;
1467;SDS011;727;48.892;9.544;2022-08-21T08:28:22;9.53;;;3.43;;
1467;SDS011;727;48.892;9.544;2022-08-21T08:30:48;6.50;;;3.30;;
1467;SDS011;727;48.892;9.544;2022-08-21T08:33:17;3.53;;;3.23;;
1467;SDS011;727;48.892;9.544;2022-08-21T08:35:45;4.83;;;4.40;;
1467;SDS011;727;48.892;9.544;2022-08-21T08:38:13;7.30;;;3.80;;
1467;SDS011;727;48.892;9.544;2022-08-21T08:40:44;4.33;;;3.67;;
1467;SDS011;727;48.892;9.544;2022-08-21T08:43:16;4.60;;;4.20;;
1467;SDS011;727;48.892;9.544;2022-08-21T08:45:45;9.50;;;3.90;;
1467;SDS011;727;48.892;9.544;2022-08-21T08:48:18;3.70;;;3.40;;
1467;SDS011;727;48.892;9.544;2022-08-21T08:51:00;4.37;;;3.20;;
1467;SDS011;727;48.892;9.544;2022-08-21T08:53:32;3.27;;;3.03;;
1467;SDS011;727;48.892;9.544;2022-08-21T08:56:06;6.03;;;3.93;;
1467;SDS011;727;48.892;9.544;2022-08-21T08:58:36;9.03;;;4.77;;
1467;SDS011;727;48.892;9.544;2022-08-21T09:01:06;4.97;;;4.20;;
1467;SDS011;727;48.892;9.544;2022-08-21T09:03:40;3.87;;;3.47;;
1467;SDS011;727;48.892;9.544;2022-08-21T09:06:10;5.33;;;3.87;;
1467;SDS011;727;48.892;9.544;2022-08-21T09:08:50;7.67;;;4.90;;
1467;SDS011;727;48.892;9.544;2022-08-21T09:11:28;4.40;;;3.60;;
1467;SDS011;727;48.892;9.544;2022-08-21T09:14:00;3.50;;;3.20;;
1467;SDS011;727;48.892;9.544;2022-08-21T09:16:37;5.03;;;4.10;;
1467;SDS011;727;48.892;9.544;2022-08-21T09:19:14;5.30;;;4.80;;
1467;SDS011;727;48.892;9.544;2022-08-21T09:21:56;5.43;;;4.93;;
1467;SDS011;727;48.892;9.544;2022-08-21T09:24:29;7.37;;;4.67;;
1467;SDS011;727;48.892;9.544;2022-08-21T09:27:01;5.40;;;4.23;;
1467;SDS011;727;48.892;9.544;2022-08-21T09:29:34;5.40;;;4.83;;
1467;SDS011;727;48.892;9.544;2022-08-21T09:32:03;10.00;;;5.30;;
1467;SDS011;727;48.892;9.544;2022-08-21T09:34:37;6.00;;;5.40;;
1467;SDS011;727;48.892;9.544;2022-08-21T09:37:04;6.07;;;5.13;;
1467;SDS011;727;48.892;9.544;2022-08-21T09:39:42;5.03;;;4.50;;
1467;SDS011;727;48.892;9.544;2022-08-21T09:42:09;5.27;;;4.27;;
1467;SDS011;727;48.892;9.544;2022-08-21T09:44:37;5.53;;;4.57;;
1467;SDS011;727;48.892;9.544;2022-08-21T09:47:09;7.37;;;4.50;;
1467;SDS011;727;48.892;9.544;2022-08-21T09:49:39;7.13;;;4.60;;
1467;SDS011;727;48.892;9.544;2022-08-21T09:52:13;5.07;;;4.57;;
1467;SDS011;727;48.892;9.544;2022-08-21T09:54:43;7.83;;;4.73;;
1467;SDS011;727;48.892;9.544;2022-08-21T09:57:12;8.10;;;4.90;;
1467;SDS011;727;48.892;9.544;2022-08-21T10:00:08;5.20;;;3.93;;
1467;SDS011;727;48.892;9.544;2022-08-21T10:02:36;5.23;;;3.63;;
1467;SDS011;727;48.892;9.544;2022-08-21T10:05:07;8.67;;;5.10;;
1467;SDS011;727;48.892;9.544;2022-08-21T10:07:36;5.90;;;3.80;;
1467;SDS011;727;48.892;9.544;2022-08-21T10:10:05;6.63;;;4.67;;
1467;SDS011;727;48.892;9.544;2022-08-21T10:12:37;4.60;;;3.30;;
1467;SDS011;727;48.892;9.544;2022-08-21T10:15:13;4.00;;;3.60;;
1467;SDS011;727;48.892;9.544;2022-08-21T10:17:49;6.17;;;3.70;;
1467;SDS011;727;48.892;9.544;2022-08-21T10:20:22;8.20;;;4.53;;
1467;SDS011;727;48.892;9.544;2022-08-21T10:22:56;10.63;;;4.30;;
1467;SDS011;727;48.892;9.544;2022-08-21T10:25:33;6.37;;;4.67;;
1467;SDS011;727;48.892;9.544;2022-08-21T10:28:07;7.53;;;4.33;;
1467;SDS011;727;48.892;9.544;2022-08-21T10:30:45;5.50;;;3.40;;
1467;SDS011;727;48.892;9.544;2022-08-21T10:33:18;12.60;;;4.40;;
1467;SDS011;727;48.892;9.544;2022-08-21T10:35:53;5.13;;;4.30;;
1467;SDS011;727;48.892;9.544;2022-08-21T10:38:38;5.47;;;3.30;;
1467;SDS011;727;48.892;9.544;2022-08-21T10:41:26;6.73;;;3.33;;
1467;SDS011;727;48.892;9.544;2022-08-21T10:44:10;6.30;;;3.87;;
1467;SDS011;727;48.892;9.544;2022-08-21T10:46:50;7.60;;;4.07;;
1467;SDS011;727;48.892;9.544;2022-08-21T10:49:26;7.23;;;4.17;;
1467;SDS011;727;48.892;9.544;2022-08-21T10:52:12;5.63;;;3.17;;
1467;SDS011;727;48.892;9.544;2022-08-21T10:54:56;8.50;;;3.83;;
1467;SDS011;727;48.892;9.544;2022-08-21T10:57:30;6.77;;;3.90;;
1467;SDS011;727;48.892;9.544;2022-08-21T11:00:08;9.27;;;3.27;;
1467;SDS011;727;48.892;9.544;2022-08-21T11:02:38;5.40;;;3.47;;
1467;SDS011;727;48.892;9.544;2022-08-21T11:05:11;7.23;;;3.40;;
1467;SDS011;727;48.892;9.544;2022-08-21T11:07:47;9.17;;;3.70;;
1467;SDS011;727;48.892;9.544;2022-08-21T11:10:18;6.60;;;3.50;;
1467;SDS011;727;48.892;9.544;2022-08-21T11:12:52;7.27;;;3.00;;
1467;SDS011;727;48.892;9.544;2022-08-21T11:15:26;5.27;;;3.13;;
1467;SDS011;727;48.892;9.544;2022-08-21T11:18:01;6.80;;;3.20;;
1467;SDS011;727;48.892;9.544;2022-08-21T11:20:38;4.60;;;3.50;;
1467;SDS011;727;48.892;9.544;2022-08-21T11:23:11;5.73;;;3.93;;
1467;SDS011;727;48.892;9.544;2022-08-21T11:25:44;3.40;;;3.10;;
1467;SDS011;727;48.892;9.544;2022-08-21T11:28:15;3.53;;;3.13;;
1467;SDS011;727;48.892;9.544;2022-08-21T11:30:58;3.50;;;2.60;;
1467;SDS011;727;48.892;9.544;2022-08-21T11:33:37;5.90;;;2.37;;
1467;SDS011;727;48.892;9.544;2022-08-21T11:36:15;3.73;;;2.63;;
1467;SDS011;727;48.892;9.544;2022-08-21T11:38:53;4.17;;;2.70;;
1467;SDS011;727;48.892;9.544;2022-08-21T11:41:28;8.00;;;3.73;;
1467;SDS011;727;48.892;9.544;2022-08-21T11:44:02;3.77;;;3.37;;
1467;SDS011;727;48.892;9.544;2022-08-21T11:46:36;4.07;;;2.57;;
1467;SDS011;727;48.892;9.544;2022-08-21T11:49:17;3.80;;;3.20;;
1467;SDS011;727;48.892;9.544;2022-08-21T11:51:56;5.33;;;2.83;;
1467;SDS011;727;48.892;9.544;2022-08-21T11:54:38;5.20;;;2.80;;
1467;SDS011;727;48.892;9.544;2022-08-21T11:57:13;5.00;;;2.67;;
1467;SDS011;727;48.892;9.544;2022-08-21T11:59:45;2.87;;;2.57;;
1467;SDS011;727;48.892;9.544;2022-08-21T12:02:18;6.07;;;3.60;;
1467;SDS011;727;48.892;9.544;2022-08-21T12:04:49;6.77;;;3.97;;
1467;SDS011;727;48.892;9.544;2022-08-21T12:07:28;3.40;;;2.90;;
1467;SDS011;727;48.892;9.544;2022-08-21T12:09:59;6.10;;;3.50;;
1467;SDS011;727;48.892;9.544;2022-08-21T12:12:28;6.03;;;2.93;;
1467;SDS011;727;48.892;9.544;2022-08-21T12:15:05;2.90;;;2.57;;
1467;SDS011;727;48.892;9.544;2022-08-21T12:17:52;3.63;;;3.00;;
1467;SDS011;727;48.892;9.544;2022-08-21T12:20:24;9.20;;;3.73;;
1467;SDS011;727;48.892;9.544;2022-08-21T12:23:03;2.80;;;2.43;;
1467;SDS011;727;48.892;9.544;2022-08-21T12:25:37;3.00;;;2.40;;
1467;SDS011;727;48.892;9.544;2022-08-21T12:28:07;6.70;;;5.93;;
1467;SDS011;727;48.892;9.544;2022-08-21T12:30:36;4.97;;;3.57;;
1467;SDS011;727;48.892;9.544;2022-08-21T12:33:06;2.70;;;2.50;;
1467;SDS011;727;48.892;9.544;2022-08-21T12:35:45;3.43;;;2.80;;
1467;SDS011;727;48.892;9.544;2022-08-21T12:38:15;5.03;;;2.90;;
1467;SDS011;727;48.892;9.544;2022-08-21T12:40:47;5.67;;;2.97;;
1467;SDS011;727;48.892;9.544;2022-08-21T12:43:18;4.03;;;2.90;;
1467;SDS011;727;48.892;9.544;2022-08-21T12:45:49;4.60;;;3.13;;
1467;SDS011;727;48.892;9.544;2022-08-21T12:48:18;4.90;;;3.70;;
1467;SDS011;727;48.892;9.544;2022-08-21T12:50:49;3.63;;;2.90;;
1467;SDS011;727;48.892;9.544;2022-08-21T12:53:22;5.17;;;3.20;;
1467;SDS011;727;48.892;9.544;2022-08-21T12:55:54;4.40;;;2.70;;
1467;SDS011;727;48.892;9.544;2022-08-21T12:58:26;6.70;;;3.60;;
1467;SDS011;727;48.892;9.544;2022-08-21T13:00:54;3.03;;;2.73;;
1467;SDS011;727;48.892;9.544;2022-08-21T13:03:23;7.73;;;3.27;;
1467;SDS011;727;48.892;9.544;2022-08-21T13:05:50;8.50;;;3.63;;
1467;SDS011;727;48.892;9.544;2022-08-21T13:08:18;5.33;;;3.20;;
1467;SDS011;727;48.892;9.544;2022-08-21T13:10:49;5.93;;;3.70;;
1467;SDS011;727;48.892;9.544;2022-08-21T13:13:25;5.33;;;3.23;;
1467;SDS011;727;48.892;9.544;2022-08-21T13:15:56;4.33;;;2.63;;
1467;SDS011;727;48.892;9.544;2022-08-21T13:18:24;3.87;;;2.77;;
1467;SDS011;727;48.892;9.544;2022-08-21T13:20:52;4.80;;;3.30;;
1467;SDS011;727;48.892;9.544;2022-08-21T13:23:31;4.33;;;3.27;;
1467;SDS011;727;48.892;9.544;2022-08-21T13:25:59;4.97;;;2.97;;
1467;SDS011;727;48.892;9.544;2022-08-21T13:28:32;5.87;;;3.23;;
1467;SDS011;727;48.892;9.544;2022-08-21T13:31:05;2.90;;;2.50;;
1467;SDS011;727;48.892;9.544;2022-08-21T13:33:35;3.77;;;3.37;;
1467;SDS011;727;48.892;9.544;2022-08-21T13:36:03;4.07;;;2.90;;
1467;SDS011;727;48.892;9.544;2022-08-21T13:38:34;2.90;;;2.57;;
1467;SDS011;727;48.892;9.544;2022-08-21T13:41:04;4.07;;;2.67;;
1467;SDS011;727;48.892;9.544;2022-08-21T13:43:36;5.00;;;3.50;;
1467;SDS011;727;48.892;9.544;2022-08-21T13:46:06;3.00;;;2.80;;
1467;SDS011;727;48.892;9.544;2022-08-21T13:48:36;3.80;;;2.73;;
1467;SDS011;727;48.892;9.544;2022-08-21T13:51:04;4.73;;;2.60;;
1467;SDS011;727;48.892;9.544;2022-08-21T13:53:33;7.53;;;2.80;;
1467;SDS011;727;48.892;9.544;2022-08-21T13:56:04;3.27;;;2.40;;
1467;SDS011;727;48.892;9.544;2022-08-21T13:58:31;5.50;;;2.27;;
1467;SDS011;727;48.892;9.544;2022-08-21T14:01:15;4.00;;;2.73;;
1467;SDS011;727;48.892;9.544;2022-08-21T14:03:45;3.80;;;2.67;;
1467;SDS011;727;48.892;9.544;2022-08-21T14:06:16;2.83;;;2.57;;
1467;SDS011;727;48.892;9.544;2022-08-21T14:08:47;4.77;;;2.90;;
1467;SDS011;727;48.892;9.544;2022-08-21T14:11:17;4.67;;;3.40;;
1467;SDS011;727;48.892;9.544;2022-08-21T14:13:44;7.70;;;2.87;;
1467;SDS011;727;48.892;9.544;2022-08-21T14:16:16;5.00;;;3.10;;
1467;SDS011;727;48.892;9.544;2022-08-21T14:18:46;4.27;;;3.60;;
1467;SDS011;727;48.892;9.544;2022-08-21T14:21:22;4.80;;;2.80;;
1467;SDS011;727;48.892;9.544;2022-08-21T14:23:58;4.37;;;2.40;;
1467;SDS011;727;48.892;9.544;2022-08-21T14:26:30;4.30;;;3.10;;
1467;SDS011;727;48.892;9.544;2022-08-21T14:28:58;2.60;;;2.40;;
1467;SDS011;727;48.892;9.544;2022-08-21T14:31:28;2.60;;;2.40;;
1467;SDS011;727;48.892;9.544;2022-08-21T14:33:57;4.00;;;2.33;;
1467;SDS011;727;48.892;9.544;2022-08-21T14:36:25;4.53;;;3.07;;
1467;SDS011;727;48.892;9.544;2022-08-21T14:38:51;3.67;;;2.63;;
1467;SDS011;727;48.892;9.544;2022-08-21T14:41:19;4.03;;;2.50;;
1467;SDS011;727;48.892;9.544;2022-08-21T14:43:49;4.00;;;2.67;;
1467;SDS011;727;48.892;9.544;2022-08-21T14:46:20;3.73;;;3.33;;
1467;SDS011;727;48.892;9.544;2022-08-21T14:48:49;2.77;;;2.57;;
1467;SDS011;727;48.892;9.544;2022-08-21T14:51:16;5.43;;;3.13;;
1467;SDS011;727;48.892;9.544;2022-08-21T14:53:43;3.50;;;2.87;;
1467;SDS011;727;48.892;9.544;2022-08-21T14:56:10;4.50;;;3.40;;
1467;SDS011;727;48.892;9.544;2022-08-21T14:58:39;3.87;;;2.50;;
1467;SDS011;727;48.892;9.544;2022-08-21T15:01:09;4.23;;;2.20;;
1467;SDS011;727;48.892;9.544;2022-08-21T15:03:38;3.97;;;2.57;;
1467;SDS011;727;48.892;9.544;2022-08-21T15:06:06;3.93;;;2.50;;
1467;SDS011;727;48.892;9.544;2022-08-21T15:08:34;3.23;;;2.37;;
1467;SDS011;727;48.892;9.544;2022-08-21T15:11:01;4.13;;;2.77;;
1467;SDS011;727;48.892;9.544;2022-08-21T15:13:29;2.93;;;2.40;;
1467;SDS011;727;48.892;9.544;2022-08-21T15:15:56;3.67;;;3.37;;
1467;SDS011;727;48.892;9.544;2022-08-21T15:18:25;4.33;;;2.70;;
1467;SDS011;727;48.892;9.544;2022-08-21T15:20:53;2.87;;;2.50;;
1467;SDS011;727;48.892;9.544;2022-08-21T15:23:20;2.30;;;2.20;;
1467;SDS011;727;48.892;9.544;2022-08-21T15:25:47;2.93;;;2.70;;
1467;SDS011;727;48.892;9.544;2022-08-21T15:28:15;3.90;;;2.90;;
1467;SDS011;727;48.892;9.544;2022-08-21T15:30:43;2.80;;;2.40;;
1467;SDS011;727;48.892;9.544;2022-08-21T15:33:11;2.93;;;2.63;;
1467;SDS011;727;48.892;9.544;2022-08-21T15:35:39;3.70;;;2.90;;
1467;SDS011;727;48.892;9.544;2022-08-21T15:38:06;3.80;;;2.70;;
1467;SDS011;727;48.892;9.544;2022-08-21T15:40:33;4.20;;;2.60;;
1467;SDS011;727;48.892;9.544;2022-08-21T15:43:01;2.90;;;2.70;;
1467;SDS011;727;48.892;9.544;2022-08-21T15:45:29;2.90;;;2.40;;